Mc Kellar Sipes Regional Airport Jackson US
ICAO: KMKL
IATA: MKL
Category: Medium
Scheduled Services: Yes

Elevation: 434 ft
TransAlt. 18000 ft.

Airport Communications:
ASOS:119.325
MEMPHIS CNTR:134.65
CTAF:127.15
GND:120.9
ARNG OPS:41.5
JACKSON RDO:122.2
JACKSON TWR:127.15
UNICOM:122.95

KMKL Zoom In..

If you have problems with the map follow the link
https://www.worldairports.se/pages/airport.php?
ICAO=KMKL

Runways:

(A) RW 02 length 6006 ft width 150 ft
ILS 109.10 / hdg 23

(B) RW 11 length 3538 ft width 100 ft
---- / hdg 113

(C) RW 20 length 6006 ft width 150 ft
---- / hdg 203

(D) RW 29 length 3538 ft width 100 ft
---- / hdg 293

Location; KMKL
Day. 14 / Time. 10.53 Zulu
* Altimeter: 30.42
* Temperature: -02° c. -28.4°f.
* Wind from: 020° Speed 11 kn.
Dewpoint: -06° c.
Visibility: 10 Statute Miles.
Clouds: Overcast 1800 ft.

KMKL 141053Z AUTO 02011KT 10SM OVC018 M02/M06 A3042 RMK AO2 SLP306 T10171056


Wind From 020°
Speed 11 kn.

 
 
jpsmedia.com for Web Design worldairports.se 2018   terms of use